Time;durP1;ratioP1;P1;durP2;ratioP2;P2;SDS_P1;SDS_P2;PMS_P1;PMS_P2;Temp;Humidity;BMP_temperature;BMP_pressure;BME280_temperature;BME280_humidity;BME280_pressure;Samples;Min_cycle;Max_cycle;Signal;HPM_P1;HPM_P2
2022/06/25 00:02:05;;;;;;;47.13;35.78;;;;;;;17.08;100.00;156812.97;5020119;28;20460;-79
2022/06/25 00:07:15;;;;;;;42.33;33.63;;;;;;;16.96;100.00;156780.75;5047343;28;20036;-78
2022/06/25 00:09:40;;;;;;;42.28;34.67;;;;;;;16.92;100.00;156773.00;5053747;28;20045;-74
2022/06/25 00:14:51;;;;;;;44.83;33.95;;;;;;;16.91;100.00;156770.47;5039915;28;20446;-74
2022/06/25 00:17:18;;;;;;;49.28;37.53;;;;;;;17.03;100.00;156798.81;5017755;28;20045;-78
2022/06/25 00:19:44;;;;;;;47.88;36.03;;;;;;;17.08;100.00;156812.97;5075860;28;20067;-77
2022/06/25 00:22:13;;;;;;;53.00;38.58;;;;;;;17.07;100.00;156809.09;5027033;28;20060;-75
2022/06/25 00:24:56;;;;;;;41.45;34.63;;;;;;;17.04;100.00;156801.34;5027236;28;20040;-76
2022/06/25 00:28:10;;;;;;;41.97;35.15;;;;;;;17.00;100.00;156792.31;5028570;28;20041;-78
2022/06/25 00:30:54;;;;;;;50.33;37.78;;;;;;;16.96;100.00;156780.75;5075372;28;20036;-77
2022/06/25 00:33:19;;;;;;;54.03;39.95;;;;;;;16.98;100.00;156785.91;5051725;28;20463;-75
2022/06/25 00:35:45;;;;;;;48.80;36.90;;;;;;;16.99;100.00;156789.78;5030001;28;20828;-77
2022/06/25 00:38:11;;;;;;;57.05;42.08;;;;;;;17.06;100.00;156806.50;5029916;28;20036;-77
2022/06/25 00:40:36;;;;;;;53.97;39.08;;;;;;;17.02;100.00;156797.47;5024611;28;20052;-77
2022/06/25 00:43:02;;;;;;;60.03;41.78;;;;;;;16.98;100.00;156787.19;5025460;28;20203;-77
2022/06/25 00:45:28;;;;;;;57.22;40.80;;;;;;;17.00;100.00;156791.06;5041844;28;20039;-76
2022/06/25 00:47:53;;;;;;;52.88;40.42;;;;;;;16.95;100.00;156778.16;5049016;28;20037;-79
2022/06/25 00:50:19;;;;;;;50.58;37.35;;;;;;;16.89;100.00;156765.28;5050671;28;20028;-76
2022/06/25 00:52:52;;;;;;;52.85;38.30;;;;;;;16.87;100.00;156758.84;5049651;28;20058;-76
2022/06/25 00:55:20;;;;;;;48.92;36.53;;;;;;;16.81;100.00;156744.63;5036104;28;20070;-78
2022/06/25 00:57:50;;;;;;;47.53;36.58;;;;;;;16.79;100.00;156739.47;5047305;28;20036;-77
2022/06/25 01:00:17;;;;;;;51.45;38.58;;;;;;;16.76;100.00;156730.47;5046851;28;20406;-74
2022/06/25 01:02:44;;;;;;;50.80;39.78;;;;;;;16.72;100.00;156721.44;5045885;28;20136;-74
2022/06/25 01:05:13;;;;;;;49.85;39.58;;;;;;;16.67;100.00;156708.56;5044057;28;20042;-77
2022/06/25 01:07:42;;;;;;;56.17;43.28;;;;;;;16.68;100.00;156712.44;5054913;28;20092;-78
2022/06/25 01:10:09;;;;;;;64.05;44.42;;;;;;;16.70;100.00;156717.56;5060071;28;20041;-77
2022/06/25 01:12:35;;;;;;;51.25;39.42;;;;;;;16.64;100.00;156700.84;5029830;28;20038;-77
2022/06/25 01:15:09;;;;;;;52.65;39.05;;;;;;;16.55;100.00;156678.94;5038432;28;20037;-75
2022/06/25 01:17:52;;;;;;;55.20;42.33;;;;;;;16.51;100.00;156668.66;5077478;28;20044;-76
2022/06/25 01:20:25;;;;;;;52.95;40.47;;;;;;;16.44;100.00;156651.91;5065502;28;20165;-76
2022/06/25 01:22:51;;;;;;;55.00;42.35;;;;;;;16.40;100.00;156640.34;5032437;28;20025;-76
2022/06/25 01:25:17;;;;;;;59.63;43.28;;;;;;;16.35;100.00;156630.03;5064609;28;20040;-77
2022/06/25 01:27:43;;;;;;;63.40;46.50;;;;;;;16.38;100.00;156635.19;5048522;28;20033;-78
2022/06/25 01:30:11;;;;;;;59.45;44.15;;;;;;;16.35;100.00;156630.03;5044644;28;20039;-76
2022/06/25 01:32:38;;;;;;;59.17;44.58;;;;;;;16.34;100.00;156627.44;5037788;28;20511;-77
2022/06/25 01:35:05;;;;;;;60.28;44.40;;;;;;;16.28;100.00;156612.00;5027312;28;20102;-79
2022/06/25 01:37:34;;;;;;;67.30;46.67;;;;;;;16.24;100.00;156601.72;5047439;28;20396;-79
2022/06/25 01:40:00;;;;;;;73.18;49.88;;;;;;;16.18;100.00;156584.97;5042833;28;20040;-76
2022/06/25 01:45:12;;;;;;;60.90;45.83;;;;;;;16.23;100.00;156599.13;5047946;28;20032;-78
2022/06/25 01:47:37;;;;;;;64.68;46.50;;;;;;;16.34;100.00;156627.44;5029654;28;20396;-76
2022/06/25 01:50:04;;;;;;;73.72;49.38;;;;;;;16.37;100.00;156632.59;5026153;28;20519;-77
2022/06/25 01:52:30;;;;;;;63.80;46.58;;;;;;;16.28;100.00;156610.75;5042072;28;20072;-78
2022/06/25 01:54:55;;;;;;;64.00;45.53;;;;;;;16.22;100.00;156596.56;5026814;28;21781;-77
2022/06/25 01:57:21;;;;;;;58.67;41.50;;;;;;;16.19;100.00;156588.84;5049993;28;20413;-78
2022/06/25 01:59:49;;;;;;;57.50;42.80;;;;;;;16.15;100.00;156578.53;5048002;28;20039;-78
2022/06/25 02:02:14;;;;;;;64.20;46.92;;;;;;;16.12;100.00;156570.81;5048646;28;20038;-78
2022/06/25 02:04:41;;;;;;;61.75;45.28;;;;;;;16.08;100.00;156560.50;5064507;28;20036;-77
2022/06/25 02:07:07;;;;;;;60.92;45.22;;;;;;;15.99;100.00;156537.34;5053411;28;20041;-79
2022/06/25 02:09:35;;;;;;;63.75;46.08;;;;;;;15.91;100.00;156519.31;5055057;28;20045;-75
2022/06/25 02:12:01;;;;;;;59.17;43.38;;;;;;;15.89;100.00;156514.16;5049037;28;20040;-77
2022/06/25 02:14:26;;;;;;;53.58;41.67;;;;;;;15.89;100.00;156514.16;5040347;28;20040;-77
2022/06/25 02:16:53;;;;;;;68.43;48.78;;;;;;;15.90;100.00;156515.50;5044945;28;20051;-76
2022/06/25 02:19:19;;;;;;;63.38;47.25;;;;;;;15.86;100.00;156506.47;5044693;28;20557;-77
2022/06/25 02:21:44;;;;;;;60.20;46.15;;;;;;;15.86;100.00;156506.47;5047331;28;20040;-77
2022/06/25 02:24:10;;;;;;;62.90;45.38;;;;;;;15.83;100.00;156498.72;5047661;28;20049;-78
2022/06/25 02:26:36;;;;;;;67.85;47.95;;;;;;;15.83;100.00;156497.47;5066409;28;20036;-78
2022/06/25 02:29:02;;;;;;;67.15;49.13;;;;;;;15.82;100.00;156494.88;5044252;28;20037;-77
2022/06/25 02:31:29;;;;;;;67.65;46.55;;;;;;;15.80;100.00;156491.00;5044665;28;20044;-77
2022/06/25 02:33:55;;;;;;;68.70;48.03;;;;;;;15.82;100.00;156494.88;5045996;28;20119;-76
2022/06/25 02:36:21;;;;;;;67.80;48.20;;;;;;;15.77;100.00;156484.56;5047881;28;20032;-76
2022/06/25 02:38:47;;;;;;;67.13;48.47;;;;;;;15.72;100.00;156470.38;5034141;28;20040;-78
2022/06/25 02:41:13;;;;;;;63.50;45.53;;;;;;;15.70;100.00;156466.50;5046474;28;20056;-77
2022/06/25 02:43:39;;;;;;;66.13;45.55;;;;;;;15.65;100.00;156453.66;5039875;28;20496;-77
2022/06/25 02:46:34;;;;;;;66.32;48.00;;;;;;;15.67;100.00;156458.81;5027579;28;20507;-78
2022/06/25 02:49:01;;;;;;;62.13;44.75;;;;;;;15.66;100.00;156454.94;5030583;28;20140;-78
2022/06/25 02:51:27;;;;;;;59.58;44.15;;;;;;;15.66;100.00;156454.94;5039797;28;20039;-78
2022/06/25 02:53:53;;;;;;;59.17;42.70;;;;;;;15.68;100.00;156460.09;5050533;28;20024;-79
2022/06/25 02:59:07;;;;;;;58.33;43.97;;;;;;;15.66;100.00;156454.94;5063123;28;20082;-78
2022/06/25 03:01:38;;;;;;;63.13;45.33;;;;;;;15.64;100.00;156449.78;5055307;28;20488;-78
2022/06/25 03:04:04;;;;;;;64.43;46.05;;;;;;;15.59;100.00;156438.19;5040964;28;20090;-76
2022/06/25 03:06:30;;;;;;;55.70;42.22;;;;;;;15.61;100.00;156443.34;5043440;28;20042;-77
2022/06/25 03:08:56;;;;;;;53.92;40.95;;;;;;;15.67;100.00;156458.81;5062931;28;20036;-75
2022/06/25 03:11:22;;;;;;;64.85;46.55;;;;;;;15.74;100.00;156475.56;5058059;28;20054;-78
2022/06/25 03:13:49;;;;;;;69.20;45.88;;;;;;;15.72;100.00;156470.38;5037920;28;20063;-76
2022/06/25 03:16:15;;;;;;;66.20;46.72;;;;;;;15.71;100.00;156467.81;5045415;28;20064;-76
2022/06/25 03:18:41;;;;;;;67.47;47.30;;;;;;;15.67;100.00;156458.81;5046014;28;20086;-77
2022/06/25 03:21:27;;;;;;;64.30;46.03;;;;;;;15.69;100.00;156462.63;5056803;28;20044;-80
2022/06/25 03:24:03;;;;;;;68.57;47.67;;;;;;;15.63;100.00;156448.47;5049897;28;20040;-79
2022/06/25 03:26:30;;;;;;;71.32;47.88;;;;;;;15.72;100.00;156470.38;5069222;28;20131;-77
2022/06/25 03:28:56;;;;;;;74.63;48.78;;;;;;;15.64;100.00;156451.06;5044028;28;20108;-75
2022/06/25 03:31:23;;;;;;;73.90;49.58;;;;;;;15.60;100.00;156440.78;5062704;28;20558;-77
2022/06/25 03:33:49;;;;;;;69.85;47.88;;;;;;;15.66;100.00;156454.94;5061262;28;20244;-77
2022/06/25 03:36:24;;;;;;;67.45;49.60;;;;;;;15.72;100.00;156470.38;5052931;28;20079;-76
2022/06/25 03:38:55;;;;;;;72.90;50.13;;;;;;;15.73;100.00;156474.28;5062095;28;20525;-77
2022/06/25 03:41:32;;;;;;;74.55;48.72;;;;;;;15.76;100.00;156482.03;5048583;28;20132;-79
2022/06/25 03:44:11;;;;;;;71.78;49.90;;;;;;;15.76;100.00;156480.72;5044701;28;20043;-78
2022/06/25 03:46:39;;;;;;;73.93;48.55;;;;;;;15.82;100.00;156494.88;5037290;28;20036;-78
2022/06/25 03:49:05;;;;;;;80.97;52.30;;;;;;;15.85;100.00;156503.88;5027972;28;20056;-75
2022/06/25 03:51:47;;;;;;;;;;;;;;;15.96;100.00;156532.19;5041905;28;21485;-76
2022/06/25 03:54:13;;;;;;;83.10;52.85;;;;;;;15.91;100.00;156518.03;5040947;28;19927;-76
2022/06/25 03:56:38;;;;;;;81.90;53.25;;;;;;;15.86;100.00;156506.47;5033792;28;20388;-75
2022/06/25 03:59:05;;;;;;;76.93;51.45;;;;;;;15.86;100.00;156505.16;5057295;28;20059;-77
2022/06/25 04:01:31;;;;;;;72.35;50.85;;;;;;;15.84;100.00;156500.00;5077690;28;20037;-75
2022/06/25 04:03:57;;;;;;;77.45;51.45;;;;;;;15.84;100.00;156501.31;5049336;28;20177;-79
2022/06/25 04:06:23;;;;;;;70.93;47.80;;;;;;;15.86;100.00;156505.16;5031845;28;20056;-77
2022/06/25 04:08:56;;;;;;;80.82;51.97;;;;;;;15.86;100.00;156506.47;5063529;28;20029;-76
2022/06/25 04:11:22;;;;;;;74.38;49.13;;;;;;;15.89;100.00;156514.16;5026491;28;20044;-77
2022/06/25 04:13:51;;;;;;;74.97;50.80;;;;;;;15.94;100.00;156525.78;5055786;28;20103;-75
2022/06/25 04:16:17;;;;;;;71.07;50.03;;;;;;;16.00;100.00;156541.22;5023723;28;20135;-76
2022/06/25 04:18:44;;;;;;;77.63;51.88;;;;;;;16.12;100.00;156570.81;5063219;28;20740;-77
2022/06/25 04:21:11;;;;;;;73.35;49.60;;;;;;;16.16;100.00;156581.09;5031953;28;20151;-76
2022/06/25 04:23:37;;;;;;;70.20;48.53;;;;;;;16.20;100.00;156591.44;5046214;28;20039;-78
2022/06/25 04:26:04;;;;;;;65.13;45.67;;;;;;;16.19;100.00;156587.56;5027753;28;20060;-77
2022/06/25 04:31:32;;;;;;;75.50;49.13;;;;;;;16.22;100.00;156595.25;5047444;28;20039;-76
2022/06/25 04:33:59;;;;;;;74.25;47.40;;;;;;;16.25;100.00;156604.28;5025186;28;20028;-75
2022/06/25 04:36:26;;;;;;;79.93;50.40;;;;;;;16.30;100.00;156617.16;5031333;28;20036;-76
2022/06/25 04:38:54;;;;;;;82.95;53.58;;;;;;;16.46;100.00;156655.78;5035308;28;20068;-79
2022/06/25 04:41:20;;;;;;;73.15;49.97;;;;;;;16.50;100.00;156666.06;5066729;28;20032;-78
2022/06/25 04:43:50;;;;;;;68.32;46.53;;;;;;;16.51;100.00;156669.94;5062124;28;20487;-78
2022/06/25 04:46:21;;;;;;;73.88;47.13;;;;;;;16.60;100.00;156690.56;5050974;28;20134;-75
2022/06/25 04:48:47;;;;;;;59.35;42.72;;;;;;;16.68;100.00;156712.44;5030697;28;20036;-75
2022/06/25 04:51:24;;;;;;;62.22;43.00;;;;;;;16.73;100.00;156725.31;5043720;28;20041;-76
2022/06/25 04:53:56;;;;;;;53.90;40.15;;;;;;;16.72;100.00;156722.72;5045924;28;20020;-75
2022/06/25 04:56:39;;;;;;;61.17;42.33;;;;;;;16.80;100.00;156742.09;5045746;28;20037;-77
2022/06/25 04:59:05;;;;;;;59.13;43.17;;;;;;;16.89;100.00;156764.00;5027124;28;20064;-77
2022/06/25 05:01:53;;;;;;;62.88;41.00;;;;;;;16.96;100.00;156782.03;5077719;28;20025;-76
2022/06/25 05:04:27;;;;;;;58.28;40.58;;;;;;;16.97;100.00;156783.31;5027777;28;20564;-78
2022/06/25 05:06:53;;;;;;;58.72;39.42;;;;;;;16.95;100.00;156779.44;5032025;28;20044;-76
2022/06/25 05:09:19;;;;;;;61.58;40.90;;;;;;;16.93;100.00;156775.63;5030399;28;20523;-77
2022/06/25 05:11:45;;;;;;;54.83;39.55;;;;;;;16.91;100.00;156770.47;5052198;28;20060;-78
2022/06/25 05:14:10;;;;;;;55.35;37.70;;;;;;;16.90;100.00;156767.88;5046230;28;20036;-76
2022/06/25 05:16:37;;;;;;;51.85;36.67;;;;;;;16.97;100.00;156784.63;5047786;28;20037;-78
2022/06/25 05:19:03;;;;;;;49.42;34.60;;;;;;;17.20;100.00;156841.31;5027674;28;20033;-77
2022/06/25 05:21:30;;;;;;;43.00;32.67;;;;;;;17.28;100.00;156861.91;5062724;28;20102;-76
2022/06/25 05:23:59;;;;;;;45.30;32.97;;;;;;;17.28;100.00;156861.91;5028013;28;20051;-79
2022/06/25 05:26:25;;;;;;;40.53;31.95;;;;;;;17.24;100.00;156852.88;5028720;28;20077;-77
2022/06/25 05:28:51;;;;;;;44.95;31.75;;;;;;;17.19;100.00;156838.69;5067802;28;20076;-76
2022/06/25 05:31:18;;;;;;;43.03;31.15;;;;;;;17.18;100.00;156836.09;5028972;28;20396;-77
2022/06/25 05:33:44;;;;;;;47.15;32.47;;;;;;;17.30;100.00;156867.03;5049347;28;20040;-77
2022/06/25 05:36:09;;;;;;;46.45;32.53;;;;;;;17.41;100.00;156894.09;5047910;28;20032;-77
2022/06/25 05:38:35;;;;;;;43.22;31.95;;;;;;;17.54;100.00;156926.28;5065750;28;20033;-78
2022/06/25 05:41:00;;;;;;;44.15;31.45;;;;;;;17.71;100.00;156970.13;5028797;28;20524;-76
2022/06/25 05:43:26;;;;;;;45.45;31.05;;;;;;;17.81;100.00;156995.88;5050693;28;20040;-77
2022/06/25 05:45:51;;;;;;;37.40;28.83;;;;;;;17.86;100.00;157008.81;5066827;28;20029;-78
2022/06/25 05:48:17;;;;;;;36.08;29.27;;;;;;;18.07;100.00;157061.63;5031788;28;20036;-78
2022/06/25 05:50:43;;;;;;;39.90;29.23;;;;;;;18.36;100.00;157132.53;5044731;28;20033;-80
2022/06/25 05:53:08;;;;;;;38.65;28.77;;;;;;;18.51;100.00;157171.19;5050024;28;20035;-76
2022/06/25 05:55:36;;;;;;;35.83;26.30;;;;;;;18.74;100.00;157229.22;5050463;28;20036;-76
2022/06/25 05:58:02;;;;;;;34.08;25.35;;;;;;;18.91;100.00;157271.81;5049465;28;20499;-77
2022/06/25 06:00:28;;;;;;;34.95;25.15;;;;;;;18.97;100.00;157286.00;5066962;28;20105;-76
2022/06/25 06:02:53;;;;;;;34.47;24.90;;;;;;;19.05;100.00;157306.63;5030227;28;20488;-79
2022/06/25 06:05:19;;;;;;;27.42;22.42;;;;;;;19.24;100.00;157354.31;5028217;28;20067;-79
2022/06/25 06:07:45;;;;;;;31.38;23.05;;;;;;;19.43;100.00;157403.31;5031053;28;20045;-78
2022/06/25 06:10:10;;;;;;;26.25;20.30;;;;;;;19.65;100.00;157458.78;5028559;28;20483;-77
2022/06/25 06:12:36;;;;;;;21.70;17.60;;;;;;;19.91;100.00;157522.03;5044839;28;20760;-78
2022/06/25 06:15:02;;;;;;;20.85;16.35;;;;;;;20.16;100.00;157586.56;5026225;28;20179;-75
2022/06/25 06:17:27;;;;;;;19.35;15.65;;;;;;;20.39;100.00;157644.59;5057777;28;20040;-76
2022/06/25 06:19:53;;;;;;;18.75;15.05;;;;;;;20.62;100.00;157701.44;5037842;28;20092;-77
2022/06/25 06:22:19;;;;;;;18.65;14.95;;;;;;;20.83;100.00;157754.31;5046819;28;20041;-76
2022/06/25 06:24:45;;;;;;;17.83;13.27;;;;;;;20.96;100.00;157787.94;5049434;28;20081;-77
2022/06/25 06:27:10;;;;;;;16.15;13.27;;;;;;;21.07;100.00;157813.72;5055912;28;20039;-77
2022/06/25 06:29:35;;;;;;;16.05;13.57;;;;;;;21.15;100.00;157835.69;5044282;28;20380;-77
2022/06/25 06:32:01;;;;;;;15.93;11.45;;;;;;;21.14;100.00;157833.09;5022866;28;20063;-78
2022/06/25 06:34:26;;;;;;;15.38;11.80;;;;;;;21.29;100.00;157869.25;5043901;28;20040;-76
2022/06/25 06:36:52;;;;;;;12.30;11.00;;;;;;;21.39;100.00;157895.03;5046136;28;20036;-76
2022/06/25 06:39:18;;;;;;;12.18;9.10;;;;;;;21.46;100.00;157911.91;5030209;28;20063;-74
2022/06/25 06:41:43;;;;;;;14.60;9.77;;;;;;;21.55;100.00;157936.44;5076748;28;20097;-76
2022/06/25 06:44:09;;;;;;;10.73;8.80;;;;;;;21.66;100.00;157962.22;5023046;28;20110;-76
2022/06/25 06:46:35;;;;;;;11.65;8.13;;;;;;;21.77;100.00;157990.63;5037972;28;20040;-76
2022/06/25 06:49:00;;;;;;;7.97;7.13;;;;;;;21.86;100.00;158013.88;5050605;28;20040;-76
2022/06/25 06:51:26;;;;;;;8.23;6.63;;;;;;;22.09;100.00;158070.72;5026648;28;20036;-76
2022/06/25 06:53:51;;;;;;;7.60;6.32;;;;;;;22.13;100.00;158082.34;5044338;28;20090;-76
2022/06/25 06:56:17;;;;;;;6.05;5.20;;;;;;;22.23;100.00;158105.59;5044598;28;20066;-76
2022/06/25 06:58:42;;;;;;;5.20;4.35;;;;;;;22.41;100.00;158150.84;5047983;28;20471;-75
2022/06/25 07:01:08;;;;;;;5.55;3.97;;;;;;;22.46;100.00;158165.06;5051504;28;20074;-78
2022/06/25 07:03:34;;;;;;;5.78;3.42;;;;;;;22.60;97.73;158198.63;5043831;28;20040;-77
2022/06/25 07:05:59;;;;;;;4.00;3.10;;;;;;;22.60;100.00;158198.63;5044656;28;20037;-78
2022/06/25 07:08:26;;;;;;;4.63;3.20;;;;;;;22.71;99.30;158228.31;5024300;28;20044;-76
2022/06/25 07:10:52;;;;;;;3.22;2.92;;;;;;;22.71;100.00;158228.31;5031432;28;20047;-77
2022/06/25 07:13:19;;;;;;;5.55;3.97;;;;;;;22.76;99.78;158239.97;5046252;28;20085;-75
2022/06/25 07:15:44;;;;;;;5.03;3.42;;;;;;;22.93;97.64;158283.91;5031787;28;20505;-76
2022/06/25 07:18:10;;;;;;;4.93;4.15;;;;;;;22.99;94.04;158296.81;5033349;28;20048;-78
2022/06/25 07:20:36;;;;;;;4.88;3.47;;;;;;;22.94;93.36;158285.19;5064682;28;20059;-77
2022/06/25 07:23:02;;;;;;;4.15;3.33;;;;;;;23.02;95.83;158304.56;5027234;28;20120;-73
2022/06/25 07:25:27;;;;;;;5.95;2.85;;;;;;;23.23;90.12;158358.91;5036686;28;20033;-74
2022/06/25 07:27:53;;;;;;;2.17;1.98;;;;;;;23.45;90.84;158414.47;5027575;28;20051;-76
2022/06/25 07:30:19;;;;;;;3.60;2.17;;;;;;;23.45;89.19;158414.47;5042118;28;20124;-76
2022/06/25 07:32:44;;;;;;;2.17;1.85;;;;;;;23.57;86.64;158444.19;5043254;28;20064;-75
2022/06/25 07:35:10;;;;;;;2.40;1.70;;;;;;;23.72;89.33;158481.69;5076604;28;20043;-77
2022/06/25 07:37:36;;;;;;;3.42;2.30;;;;;;;23.79;87.50;158498.50;5030341;28;20041;-78
2022/06/25 07:40:03;;;;;;;2.72;2.17;;;;;;;23.85;88.77;158515.34;5078788;28;20054;-77
2022/06/25 07:42:31;;;;;;;3.20;1.90;;;;;;;23.84;85.10;158511.44;5064893;28;20044;-76
2022/06/25 07:44:58;;;;;;;2.95;1.90;;;;;;;23.87;83.64;158519.22;5047497;28;20036;-77
2022/06/25 07:47:23;;;;;;;3.47;2.10;;;;;;;24.03;81.52;158560.56;5022311;28;20391;-78
2022/06/25 07:52:33;;;;;;;3.97;2.15;;;;;;;24.02;84.03;158558.00;5047046;28;20047;-77
2022/06/25 07:55:00;;;;;;;3.15;1.80;;;;;;;24.22;84.70;158607.09;5032156;28;20033;-78
2022/06/25 07:57:26;;;;;;;2.70;2.10;;;;;;;24.35;81.24;158639.44;5051207;28;20040;-78
2022/06/25 07:59:51;;;;;;;3.40;2.17;;;;;;;24.42;78.13;158657.53;5059308;28;20029;-78
2022/06/25 08:02:17;;;;;;;5.40;2.22;;;;;;;24.36;78.56;158643.31;5052912;28;20343;-77
2022/06/25 08:04:43;;;;;;;6.40;2.20;;;;;;;24.38;79.53;158647.22;5053032;28;20514;-78
2022/06/25 08:07:08;;;;;;;4.55;2.40;;;;;;;24.35;79.21;158640.72;5051012;28;20052;-78
2022/06/25 08:09:34;;;;;;;6.35;2.22;;;;;;;24.53;81.78;158686.03;5042018;28;20124;-77
2022/06/25 08:12:00;;;;;;;2.90;2.60;;;;;;;24.65;76.63;158715.78;5052393;28;20044;-76
2022/06/25 08:14:26;;;;;;;5.03;2.90;;;;;;;24.42;79.91;158658.81;5038539;28;20123;-78
2022/06/25 08:16:51;;;;;;;5.53;3.30;;;;;;;24.41;79.22;158656.28;5054499;28;20028;-77
2022/06/25 08:19:17;;;;;;;4.78;2.33;;;;;;;24.70;76.66;158727.44;5036246;28;20036;-78
2022/06/25 08:21:43;;;;;;;4.40;2.17;;;;;;;24.84;76.81;158764.91;5053418;28;20119;-76
2022/06/25 08:24:08;;;;;;;3.05;2.25;;;;;;;25.10;77.72;158828.31;5029388;28;20063;-77
2022/06/25 08:26:34;;;;;;;3.40;3.10;;;;;;;25.30;75.65;158878.75;5067470;28;20041;-78
2022/06/25 08:29:00;;;;;;;3.55;2.80;;;;;;;25.33;76.42;158886.53;5080323;28;20075;-77
2022/06/25 08:31:25;;;;;;;2.95;2.70;;;;;;;25.37;75.09;158896.88;5027415;28;20044;-78
2022/06/25 08:33:51;;;;;;;3.55;2.50;;;;;;;25.56;75.91;158946.06;5034255;28;20127;-78
2022/06/25 08:36:17;;;;;;;2.80;2.20;;;;;;;25.60;76.70;158955.13;5045963;28;20104;-75
2022/06/25 08:38:42;;;;;;;8.85;2.92;;;;;;;25.64;76.58;158965.47;5034853;28;20036;-77
2022/06/25 08:41:08;;;;;;;3.10;2.50;;;;;;;25.75;73.52;158993.94;5028481;28;20066;-78
2022/06/25 08:43:33;;;;;;;3.30;3.00;;;;;;;25.71;72.85;158983.59;5064357;28;20044;-76
2022/06/25 08:45:59;;;;;;;5.60;3.00;;;;;;;25.09;75.32;158827.03;5032047;28;20213;-76
2022/06/25 08:48:31;;;;;;;3.05;2.75;;;;;;;24.87;77.73;158772.66;5036984;28;20040;-79
2022/06/25 08:50:58;;;;;;;4.47;3.22;;;;;;;25.13;76.84;158836.03;5049005;28;20033;-78
2022/06/25 08:53:30;;;;;;;4.63;3.65;;;;;;;25.21;75.15;158856.75;5034142;28;20044;-78
2022/06/25 08:55:56;;;;;;;4.30;3.03;;;;;;;25.00;75.38;158803.75;5046967;28;20028;-79
2022/06/25 08:58:21;;;;;;;4.95;4.28;;;;;;;25.34;72.61;158890.44;5052747;28;20032;-77
2022/06/25 09:00:47;;;;;;;4.05;3.65;;;;;;;25.73;73.48;158988.78;5058213;28;20732;-77
2022/06/25 09:03:13;;;;;;;5.97;3.20;;;;;;;26.06;71.96;159071.59;5069283;28;20483;-77
2022/06/25 09:05:44;;;;;;;5.18;3.22;;;;;;;26.41;73.29;159160.91;5046468;28;20039;-78
2022/06/25 09:08:12;;;;;;;3.88;3.03;;;;;;;26.70;73.87;159232.16;5036065;28;20103;-79
2022/06/25 09:10:40;;;;;;;12.23;3.80;;;;;;;26.79;72.52;159255.44;5063465;28;20033;-76
2022/06/25 09:13:08;;;;;;;5.75;3.90;;;;;;;26.83;69.91;159265.81;5052772;28;20058;-78
2022/06/25 09:15:39;;;;;;;4.57;3.65;;;;;;;26.92;72.13;159289.09;5058260;28;20033;-78
2022/06/25 09:18:16;;;;;;;6.07;3.95;;;;;;;26.89;69.30;159281.31;5029642;28;20385;-76
2022/06/25 09:21:02;;;;;;;4.22;3.83;;;;;;;26.63;70.50;159215.31;5039724;28;20411;-78
2022/06/25 09:23:30;;;;;;;5.75;4.15;;;;;;;26.92;69.08;159289.09;5060863;28;20047;-73
2022/06/25 09:26:08;;;;;;;4.60;4.15;;;;;;;26.91;67.78;159286.50;5066619;28;20032;-76
2022/06/25 09:28:36;;;;;;;7.50;4.25;;;;;;;26.71;69.54;159234.72;5059080;28;20847;-76
2022/06/25 09:31:02;;;;;;;4.65;4.20;;;;;;;26.89;69.76;159280.03;5067761;28;20032;-77
2022/06/25 09:33:32;;;;;;;4.88;3.92;;;;;;;27.10;66.89;159334.38;5059570;28;20029;-78
2022/06/25 09:35:58;;;;;;;4.18;3.83;;;;;;;27.37;62.64;159401.81;5074317;28;20069;-76
2022/06/25 09:38:24;;;;;;;3.53;3.20;;;;;;;27.48;65.30;159428.97;5042871;28;20147;-78
2022/06/25 09:40:56;;;;;;;3.60;3.30;;;;;;;27.32;65.04;159390.13;5036569;28;20487;-75
2022/06/25 09:43:24;;;;;;;4.43;3.00;;;;;;;26.91;70.19;159286.50;5046486;28;20630;-74
2022/06/25 09:45:53;;;;;;;6.45;2.90;;;;;;;26.48;72.25;159176.44;5029336;28;20037;-74
2022/06/25 09:48:22;;;;;;;3.15;2.70;;;;;;;26.29;78.17;159129.81;5047512;28;20037;-78
2022/06/25 09:51:03;;;;;;;3.45;3.10;;;;;;;26.60;74.08;159207.56;5048736;28;20040;-77
2022/06/25 09:53:29;;;;;;;3.65;2.95;;;;;;;27.31;66.15;159387.56;5062879;28;20568;-77
2022/06/25 09:55:55;;;;;;;5.88;4.65;;;;;;;27.17;65.88;159351.25;5041585;28;20044;-76
2022/06/25 09:58:21;;;;;;;3.13;2.83;;;;;;;27.50;66.86;159435.47;5047059;28;20147;-76
2022/06/25 10:00:47;;;;;;;4.15;3.45;;;;;;;27.88;65.71;159531.28;5044671;28;20395;-78
2022/06/25 10:03:13;;;;;;;4.18;2.80;;;;;;;28.08;63.12;159580.53;5060028;28;20487;-76
2022/06/25 10:05:40;;;;;;;4.53;2.47;;;;;;;28.34;64.10;159646.59;5061288;28;20656;-78
2022/06/25 10:08:12;;;;;;;3.55;3.00;;;;;;;28.44;61.03;159671.19;5067028;28;20036;-78
2022/06/25 10:10:42;;;;;;;3.28;2.25;;;;;;;28.43;59.65;159669.91;5064423;28;20035;-76
2022/06/25 10:13:08;;;;;;;2.38;2.17;;;;;;;28.58;61.86;159707.53;5049081;28;20441;-78
2022/06/25 10:15:35;;;;;;;1.48;1.38;;;;;;;28.45;53.61;159673.81;5054383;28;20029;-78
2022/06/25 10:18:03;;;;;;;1.40;1.20;;;;;;;28.40;54.45;159660.84;5050063;28;20047;-77
2022/06/25 10:20:31;;;;;;;1.77;0.95;;;;;;;28.32;54.08;159642.72;5048333;28;20083;-75
2022/06/25 10:22:59;;;;;;;1.02;0.95;;;;;;;28.62;53.58;159716.63;5042896;28;20040;-78
2022/06/25 10:25:26;;;;;;;2.13;0.90;;;;;;;28.84;51.63;159773.63;5045568;28;20041;-76
2022/06/25 10:28:04;;;;;;;1.05;0.90;;;;;;;28.93;49.98;159795.63;5062548;28;20032;-77
2022/06/25 10:30:43;;;;;;;1.65;1.00;;;;;;;28.97;50.00;159804.69;5061146;28;20040;-78
2022/06/25 10:33:09;;;;;;;1.30;1.20;;;;;;;28.95;48.60;159799.50;5022029;28;20496;-77
2022/06/25 10:35:37;;;;;;;0.90;0.90;;;;;;;28.99;48.07;159809.88;5060468;28;20068;-76
2022/06/25 10:38:06;;;;;;;1.70;1.00;;;;;;;29.12;48.81;159843.56;5031527;28;20063;-75
2022/06/25 10:40:33;;;;;;;1.02;1.00;;;;;;;29.18;48.78;159857.84;5048698;28;20040;-78
2022/06/25 10:43:23;;;;;;;1.17;1.05;;;;;;;29.36;50.03;159903.25;5045929;28;20037;-77
2022/06/25 10:45:49;;;;;;;2.60;1.45;;;;;;;28.37;52.07;159654.38;5076567;28;20028;-76
2022/06/25 10:48:18;;;;;;;4.93;1.50;;;;;;;27.88;53.64;159530.00;5030450;28;20037;-77
2022/06/25 10:50:47;;;;;;;1.50;1.40;;;;;;;27.50;59.32;159435.47;5043898;28;20423;-77
2022/06/25 10:53:12;;;;;;;1.58;1.48;;;;;;;27.87;61.78;159528.66;5048488;28;20028;-77
2022/06/25 10:55:47;;;;;;;1.70;1.40;;;;;;;28.44;60.20;159671.19;5031907;28;20044;-77
2022/06/25 10:58:15;;;;;;;2.75;1.40;;;;;;;28.44;63.00;159671.19;5041229;28;20044;-78
2022/06/25 11:00:49;;;;;;;1.65;1.30;;;;;;;28.96;55.64;159802.13;5026823;28;20622;-78
2022/06/25 11:03:15;;;;;;;4.47;1.30;;;;;;;29.10;54.62;159838.38;5033335;28;20039;-79
2022/06/25 11:05:43;;;;;;;2.05;1.40;;;;;;;29.59;51.60;159961.53;5071737;28;20036;-78
2022/06/25 11:08:09;;;;;;;2.10;1.17;;;;;;;29.76;49.53;160004.38;5025954;28;20037;-77
2022/06/25 11:10:36;;;;;;;1.42;1.30;;;;;;;29.35;52.71;159900.63;5043242;28;20037;-78
2022/06/25 11:13:05;;;;;;;4.05;1.30;;;;;;;29.68;51.55;159984.88;5025290;28;20121;-79
2022/06/25 11:15:43;;;;;;;2.22;1.30;;;;;;;29.74;53.11;159999.19;5026781;28;20043;-78
2022/06/25 11:18:13;;;;;;;1.90;1.30;;;;;;;29.92;51.94;160044.56;5062756;28;20071;-78
2022/06/25 11:20:40;;;;;;;2.58;1.40;;;;;;;30.16;51.04;160106.78;5047246;28;20043;-77
2022/06/25 11:23:10;;;;;;;2.35;1.20;;;;;;;30.26;51.56;160131.41;5049735;28;20036;-79
2022/06/25 11:28:48;;;;;;;2.80;1.38;;;;;;;29.15;51.15;159851.41;5069595;28;20072;-77
2022/06/25 11:31:15;;;;;;;2.63;1.35;;;;;;;29.70;52.54;159990.06;5046672;28;20682;-78
2022/06/25 11:33:43;;;;;;;1.83;1.27;;;;;;;29.95;51.46;160053.66;5033868;28;20111;-78
2022/06/25 11:36:10;;;;;;;3.28;1.42;;;;;;;30.00;49.53;160065.28;5028778;28;20035;-74